New York, NY (10019)

3:59 PM EDT on July 06, 2015 (GMT -0400)
Midtown West | | Change Station
CLOSE
Current Station
Personal Weather Station
Location: New York, NY
Elevation: 30 ft
Nearby Weather Stations

Elev 30 ft 40.76 °N, 73.99 °W | Updated 12 seconds ago

Scattered Clouds
Scattered Clouds
82.8 °F
Feels Like 86 °F
N
0.0
Wind Variable Wind from East
Gusts 0.0 mph

Today
High -- | Low -- °F
--% Chance of Precip.
Yesterday
High -- | Low -- °F
Precip. -- in
5:30 AM 8:30 PM
Waning Gibbous, 72% visible
Pressure 30.13 in
Visibility 10.0 miles
Clouds Scattered Clouds 6500 ft
Heat Index 86 °F
Dew Point 68 °F
Humidity 62%
Rainfall 0.00 in
Snow Depth Not available.
UV 2.0 out of 12
Pollen 3.90 out of 12
Air Quality Not available.
Flu Activity Not available.
METAR KNYC 061951Z AUTO 00000KT 10SM SCT065 26/19 A3016 RMK AO2 SLP201 T02610189 $

More Conditions Fewer Conditions

Pressure 30.13 in
Visibility 10.0 miles
Clouds Scattered Clouds 6500 ft
Heat Index 86 °F
Dew Point 68 °F
Humidity 62%
Rainfall 0.00 in
Snow Depth Not available.
UV 2.0 out of 12
Pollen 3.90 out of 12
Air Quality Not available.
Flu Activity Not available.
METAR KNYC 061951Z AUTO 00000KT 10SM SCT065 26/19 A3016 RMK AO2 SLP201 T02610189 $

More Conditions Fewer Conditions

10-Day Weather Forecast

×

Almanac

Astronomy

Jul. 06, 2015 Rise Set
Actual Time
Civil Twilight
Nautical Twilight
Astronomical Twilight
Moon
Length of Visible Light
Length of Day
Tomorrow will be .
, % of the Moon is Illuminated

Today's Extremes

State Highs State Lows

Community

WunderPhotos

Upload Photos

1,835,625 photos uploaded!

WunderBlogs® & News

Nearby

Air Quality

  Air Quality AQ Index Pollutant
Not available.

Snow Depth

Station Depth Elevation

Earthquake Activity

City Distance Mag. Time & Date
Minimum magnitude displayed is 2.5.

Coastal Water Temperatures

Place Temperature

Stations

Nearby Weather Stations

Station Location Temp. Windchill Dew Point Humidity Wind Precip. Elev Updated Type